sensor_id;sensor_type;location;lat;lon;timestamp;pressure;altitude;pressure_sealevel;temperature;humidity
44075;BME280;60448;44.956;7.660;2022-08-19T00:00:00;98180;;;24.6;58.8
44075;BME280;60448;44.956;7.660;2022-08-19T00:05:00;98180;;;24.6;58.7
44075;BME280;60448;44.956;7.660;2022-08-19T00:10:00;98180;;;24.6;58.7
44075;BME280;60448;44.956;7.660;2022-08-19T00:15:00;98150;;;25.0;57.9
44075;BME280;60448;44.956;7.660;2022-08-19T00:20:00;98150;;;25.0;57.9
44075;BME280;60448;44.956;7.660;2022-08-19T00:25:00;98150;;;25.0;57.9
44075;BME280;60448;44.956;7.660;2022-08-19T00:30:00;98150;;;25.0;57.9
44075;BME280;60448;44.956;7.660;2022-08-19T00:35:00;98140;;;25.3;57.9
44075;BME280;60448;44.956;7.660;2022-08-19T00:40:00;98140;;;25.3;57.9
44075;BME280;60448;44.956;7.660;2022-08-19T00:45:00;98140;;;25.3;57.9
44075;BME280;60448;44.956;7.660;2022-08-19T00:50:00;98150;;;25.4;56.7
44075;BME280;60448;44.956;7.660;2022-08-19T00:55:00;98150;;;25.4;56.7
44075;BME280;60448;44.956;7.660;2022-08-19T01:00:00;98150;;;25.4;56.7
44075;BME280;60448;44.956;7.660;2022-08-19T01:05:01;98160;;;25.4;56.3
44075;BME280;60448;44.956;7.660;2022-08-19T01:10:00;98160;;;25.4;56.3
44075;BME280;60448;44.956;7.660;2022-08-19T01:15:00;98160;;;25.4;56.3
44075;BME280;60448;44.956;7.660;2022-08-19T01:20:00;98180;;;25.2;55.8
44075;BME280;60448;44.956;7.660;2022-08-19T01:25:00;98180;;;25.2;55.8
44075;BME280;60448;44.956;7.660;2022-08-19T01:30:00;98180;;;25.2;55.8
44075;BME280;60448;44.956;7.660;2022-08-19T01:35:00;98200;;;25.1;56.2
44075;BME280;60448;44.956;7.660;2022-08-19T01:40:00;98200;;;25.1;56.2
44075;BME280;60448;44.956;7.660;2022-08-19T01:45:00;98200;;;25.1;56.2
44075;BME280;60448;44.956;7.660;2022-08-19T01:50:00;98210;;;25.2;56.6
44075;BME280;60448;44.956;7.660;2022-08-19T01:55:00;98210;;;25.2;56.6
44075;BME280;60448;44.956;7.660;2022-08-19T02:00:00;98210;;;25.2;56.6
44075;BME280;60448;44.956;7.660;2022-08-19T02:05:00;98210;;;25.4;56.2
44075;BME280;60448;44.956;7.660;2022-08-19T02:10:09;98220;;;25.4;56.2
44075;BME280;60448;44.956;7.660;2022-08-19T02:15:00;98220;;;25.4;56.2
44075;BME280;60448;44.956;7.660;2022-08-19T02:20:00;98220;;;25.4;56.2
44075;BME280;60448;44.956;7.660;2022-08-19T02:25:00;98230;;;25.3;56.2
44075;BME280;60448;44.956;7.660;2022-08-19T02:30:00;98230;;;25.3;56.2
44075;BME280;60448;44.956;7.660;2022-08-19T02:35:00;98230;;;25.3;56.2
44075;BME280;60448;44.956;7.660;2022-08-19T02:40:00;98210;;;25.3;56.4
44075;BME280;60448;44.956;7.660;2022-08-19T02:45:00;98210;;;25.3;56.4
44075;BME280;60448;44.956;7.660;2022-08-19T02:50:00;98210;;;25.3;56.4
44075;BME280;60448;44.956;7.660;2022-08-19T02:55:00;98180;;;25.3;56.3
44075;BME280;60448;44.956;7.660;2022-08-19T03:00:00;98180;;;25.3;56.3
44075;BME280;60448;44.956;7.660;2022-08-19T03:05:00;98180;;;25.3;56.3
44075;BME280;60448;44.956;7.660;2022-08-19T03:10:00;98190;;;25.4;56.6
44075;BME280;60448;44.956;7.660;2022-08-19T03:15:00;98190;;;25.4;56.6
44075;BME280;60448;44.956;7.660;2022-08-19T03:20:00;98190;;;25.4;56.6
44075;BME280;60448;44.956;7.660;2022-08-19T03:25:00;98180;;;25.5;56.5
44075;BME280;60448;44.956;7.660;2022-08-19T03:30:00;98180;;;25.5;56.5
44075;BME280;60448;44.956;7.660;2022-08-19T03:35:00;98180;;;25.5;56.5
44075;BME280;60448;44.956;7.660;2022-08-19T03:40:00;98160;;;25.5;56.5
44075;BME280;60448;44.956;7.660;2022-08-19T03:45:00;98160;;;25.5;56.5
44075;BME280;60448;44.956;7.660;2022-08-19T03:50:00;98160;;;25.5;56.5
44075;BME280;60448;44.956;7.660;2022-08-19T03:55:00;98160;;;25.5;56.5
44075;BME280;60448;44.956;7.660;2022-08-19T04:00:00;98160;;;25.5;56.0
44075;BME280;60448;44.956;7.660;2022-08-19T04:05:00;98160;;;25.5;56.0
44075;BME280;60448;44.956;7.660;2022-08-19T04:10:00;98160;;;25.5;56.0
44075;BME280;60448;44.956;7.660;2022-08-19T04:15:00;98160;;;25.4;56.2
44075;BME280;60448;44.956;7.660;2022-08-19T04:20:00;98160;;;25.4;56.2
44075;BME280;60448;44.956;7.660;2022-08-19T04:25:00;98160;;;25.4;56.2
44075;BME280;60448;44.956;7.660;2022-08-19T04:30:00;98150;;;25.4;56.3
44075;BME280;60448;44.956;7.660;2022-08-19T04:35:00;98150;;;25.4;56.3
44075;BME280;60448;44.956;7.660;2022-08-19T04:40:00;98150;;;25.4;56.3
44075;BME280;60448;44.956;7.660;2022-08-19T04:45:00;98140;;;25.5;56.3
44075;BME280;60448;44.956;7.660;2022-08-19T04:50:00;98140;;;25.5;56.3
44075;BME280;60448;44.956;7.660;2022-08-19T04:55:00;98140;;;25.5;56.3
44075;BME280;60448;44.956;7.660;2022-08-19T05:00:09;98150;;;25.5;55.8
44075;BME280;60448;44.956;7.660;2022-08-19T05:05:00;98150;;;25.5;55.8
44075;BME280;60448;44.956;7.660;2022-08-19T05:10:00;98150;;;25.5;55.8
44075;BME280;60448;44.956;7.660;2022-08-19T05:15:01;98160;;;25.4;55.8
44075;BME280;60448;44.956;7.660;2022-08-19T05:20:00;98160;;;25.4;55.8
44075;BME280;60448;44.956;7.660;2022-08-19T05:25:02;98160;;;25.4;55.8
44075;BME280;60448;44.956;7.660;2022-08-19T05:30:00;98170;;;25.4;55.9
44075;BME280;60448;44.956;7.660;2022-08-19T05:35:00;98180;;;25.4;55.9
44075;BME280;60448;44.956;7.660;2022-08-19T05:40:00;98180;;;25.4;55.9
44075;BME280;60448;44.956;7.660;2022-08-19T05:45:00;98180;;;25.4;56.0
44075;BME280;60448;44.956;7.660;2022-08-19T05:50:00;98170;;;25.4;56.0
44075;BME280;60448;44.956;7.660;2022-08-19T05:55:00;98170;;;25.4;56.0
44075;BME280;60448;44.956;7.660;2022-08-19T06:00:00;98190;;;25.4;56.9
44075;BME280;60448;44.956;7.660;2022-08-19T06:05:00;98190;;;25.4;57.0
44075;BME280;60448;44.956;7.660;2022-08-19T06:10:00;98190;;;25.4;57.0
44075;BME280;60448;44.956;7.660;2022-08-19T06:15:01;98190;;;25.4;57.0
44075;BME280;60448;44.956;7.660;2022-08-19T06:20:00;98210;;;25.4;57.2
44075;BME280;60448;44.956;7.660;2022-08-19T06:25:00;98210;;;25.4;57.2
44075;BME280;60448;44.956;7.660;2022-08-19T06:30:00;98210;;;25.4;57.2
44075;BME280;60448;44.956;7.660;2022-08-19T06:35:00;98240;;;25.4;57.0
44075;BME280;60448;44.956;7.660;2022-08-19T06:40:00;98240;;;25.4;57.0
44075;BME280;60448;44.956;7.660;2022-08-19T06:45:00;98240;;;25.4;57.0
44075;BME280;60448;44.956;7.660;2022-08-19T06:50:00;98240;;;25.5;56.7
44075;BME280;60448;44.956;7.660;2022-08-19T06:55:00;98240;;;25.5;56.7
44075;BME280;60448;44.956;7.660;2022-08-19T07:00:00;98240;;;25.5;56.7
44075;BME280;60448;44.956;7.660;2022-08-19T07:05:00;98250;;;25.6;55.8
44075;BME280;60448;44.956;7.660;2022-08-19T07:10:00;98250;;;25.6;55.8
44075;BME280;60448;44.956;7.660;2022-08-19T07:15:00;98250;;;25.6;55.8
44075;BME280;60448;44.956;7.660;2022-08-19T07:20:00;98250;;;25.7;55.2
44075;BME280;60448;44.956;7.660;2022-08-19T07:25:00;98250;;;25.7;55.2
44075;BME280;60448;44.956;7.660;2022-08-19T07:30:00;98250;;;25.7;55.2
44075;BME280;60448;44.956;7.660;2022-08-19T07:35:00;98260;;;25.8;54.6
44075;BME280;60448;44.956;7.660;2022-08-19T07:40:00;98260;;;25.8;54.6
44075;BME280;60448;44.956;7.660;2022-08-19T07:45:00;98260;;;25.8;54.6
44075;BME280;60448;44.956;7.660;2022-08-19T07:50:00;98260;;;25.8;54.6
44075;BME280;60448;44.956;7.660;2022-08-19T07:55:00;98250;;;25.7;54.2
44075;BME280;60448;44.956;7.660;2022-08-19T08:00:00;98250;;;25.7;54.2
44075;BME280;60448;44.956;7.660;2022-08-19T08:05:00;98250;;;25.7;54.2
44075;BME280;60448;44.956;7.660;2022-08-19T08:10:00;98260;;;25.5;54.4
44075;BME280;60448;44.956;7.660;2022-08-19T08:15:00;98260;;;25.5;54.4
44075;BME280;60448;44.956;7.660;2022-08-19T08:20:00;98260;;;25.5;54.4
44075;BME280;60448;44.956;7.660;2022-08-19T08:25:03;98280;;;25.4;54.4
44075;BME280;60448;44.956;7.660;2022-08-19T08:30:00;98280;;;25.4;54.4
44075;BME280;60448;44.956;7.660;2022-08-19T08:35:00;98280;;;25.4;54.4
44075;BME280;60448;44.956;7.660;2022-08-19T08:45:06;98300;;;25.3;54.7
44075;BME280;60448;44.956;7.660;2022-08-19T08:50:03;98300;;;25.3;54.7
44075;BME280;60448;44.956;7.660;2022-08-19T08:55:03;98310;;;25.3;54.9
44075;BME280;60448;44.956;7.660;2022-08-19T09:00:00;98310;;;25.3;54.9
44075;BME280;60448;44.956;7.660;2022-08-19T09:05:00;98310;;;25.3;54.9
44075;BME280;60448;44.956;7.660;2022-08-19T09:15:03;98300;;;25.3;54.7
44075;BME280;60448;44.956;7.660;2022-08-19T09:20:02;98300;;;25.3;54.7
44075;BME280;60448;44.956;7.660;2022-08-19T09:25:00;98300;;;25.3;54.3
44075;BME280;60448;44.956;7.660;2022-08-19T09:30:00;98300;;;25.4;54.2
44075;BME280;60448;44.956;7.660;2022-08-19T09:35:00;98300;;;25.4;54.2
44075;BME280;60448;44.956;7.660;2022-08-19T09:40:00;98300;;;25.4;54.5
44075;BME280;60448;44.956;7.660;2022-08-19T09:45:00;98310;;;25.4;54.5
44075;BME280;60448;44.956;7.660;2022-08-19T09:50:00;98310;;;25.4;54.5
44075;BME280;60448;44.956;7.660;2022-08-19T09:55:00;98320;;;25.4;54.3
44075;BME280;60448;44.956;7.660;2022-08-19T10:00:00;98320;;;25.4;54.2
44075;BME280;60448;44.956;7.660;2022-08-19T10:05:00;98320;;;25.4;54.2
44075;BME280;60448;44.956;7.660;2022-08-19T10:10:00;98320;;;25.4;54.2
44075;BME280;60448;44.956;7.660;2022-08-19T10:15:00;98320;;;25.5;53.7
44075;BME280;60448;44.956;7.660;2022-08-19T10:20:00;98320;;;25.5;53.7
44075;BME280;60448;44.956;7.660;2022-08-19T10:25:00;98320;;;25.5;53.7
44075;BME280;60448;44.956;7.660;2022-08-19T10:30:00;98310;;;25.5;54.0
44075;BME280;60448;44.956;7.660;2022-08-19T10:35:00;98310;;;25.5;54.0
44075;BME280;60448;44.956;7.660;2022-08-19T10:40:00;98310;;;25.5;54.0
44075;BME280;60448;44.956;7.660;2022-08-19T10:45:00;98310;;;25.5;53.8
44075;BME280;60448;44.956;7.660;2022-08-19T10:50:00;98310;;;25.5;53.8
44075;BME280;60448;44.956;7.660;2022-08-19T10:55:02;98310;;;25.5;53.8
44075;BME280;60448;44.956;7.660;2022-08-19T11:00:00;98310;;;25.5;53.5
44075;BME280;60448;44.956;7.660;2022-08-19T11:05:00;98310;;;25.5;53.5
44075;BME280;60448;44.956;7.660;2022-08-19T11:10:00;98310;;;25.5;53.5
44075;BME280;60448;44.956;7.660;2022-08-19T11:15:00;98310;;;25.5;53.5
44075;BME280;60448;44.956;7.660;2022-08-19T11:20:00;98310;;;25.5;53.6
44075;BME280;60448;44.956;7.660;2022-08-19T11:25:00;98310;;;25.5;53.6
44075;BME280;60448;44.956;7.660;2022-08-19T11:30:00;98310;;;25.5;53.7
44075;BME280;60448;44.956;7.660;2022-08-19T11:35:00;98320;;;25.5;53.8
44075;BME280;60448;44.956;7.660;2022-08-19T11:40:00;98320;;;25.5;53.8
44075;BME280;60448;44.956;7.660;2022-08-19T11:45:00;98290;;;25.6;53.8
44075;BME280;60448;44.956;7.660;2022-08-19T11:50:00;98290;;;25.6;54.0
44075;BME280;60448;44.956;7.660;2022-08-19T11:55:00;98290;;;25.6;54.0
44075;BME280;60448;44.956;7.660;2022-08-19T12:00:00;98270;;;25.6;54.2
44075;BME280;60448;44.956;7.660;2022-08-19T12:05:00;98270;;;25.6;54.3
44075;BME280;60448;44.956;7.660;2022-08-19T12:10:00;98270;;;25.6;54.3
44075;BME280;60448;44.956;7.660;2022-08-19T12:15:00;98260;;;25.7;54.5
44075;BME280;60448;44.956;7.660;2022-08-19T12:20:00;98250;;;25.7;54.4
44075;BME280;60448;44.956;7.660;2022-08-19T12:25:00;98250;;;25.7;54.4
44075;BME280;60448;44.956;7.660;2022-08-19T12:30:00;98230;;;25.7;54.3
44075;BME280;60448;44.956;7.660;2022-08-19T12:35:00;98230;;;25.7;54.3
44075;BME280;60448;44.956;7.660;2022-08-19T12:40:00;98230;;;25.7;54.3
44075;BME280;60448;44.956;7.660;2022-08-19T12:45:00;98230;;;25.7;54.3
44075;BME280;60448;44.956;7.660;2022-08-19T12:50:00;98230;;;25.8;54.1
44075;BME280;60448;44.956;7.660;2022-08-19T12:55:00;98230;;;25.8;54.1
44075;BME280;60448;44.956;7.660;2022-08-19T13:00:01;98230;;;25.8;54.1
44075;BME280;60448;44.956;7.660;2022-08-19T13:05:00;98220;;;25.8;53.9
44075;BME280;60448;44.956;7.660;2022-08-19T13:10:00;98220;;;25.8;53.9
44075;BME280;60448;44.956;7.660;2022-08-19T13:15:00;98220;;;25.8;53.9
44075;BME280;60448;44.956;7.660;2022-08-19T13:20:00;98210;;;25.9;53.6
44075;BME280;60448;44.956;7.660;2022-08-19T13:25:00;98210;;;25.9;53.6
44075;BME280;60448;44.956;7.660;2022-08-19T13:30:00;98210;;;25.9;53.6
44075;BME280;60448;44.956;7.660;2022-08-19T13:35:00;98190;;;26.0;52.8
44075;BME280;60448;44.956;7.660;2022-08-19T13:40:00;98190;;;26.0;52.8
44075;BME280;60448;44.956;7.660;2022-08-19T13:45:00;98190;;;26.0;52.8
44075;BME280;60448;44.956;7.660;2022-08-19T13:50:03;98170;;;26.0;51.9
44075;BME280;60448;44.956;7.660;2022-08-19T13:55:00;98170;;;26.0;51.9
44075;BME280;60448;44.956;7.660;2022-08-19T14:00:00;98170;;;26.0;51.9
44075;BME280;60448;44.956;7.660;2022-08-19T14:05:00;98170;;;26.1;51.6
44075;BME280;60448;44.956;7.660;2022-08-19T14:10:00;98170;;;26.1;51.6
44075;BME280;60448;44.956;7.660;2022-08-19T14:15:00;98170;;;26.1;51.6
44075;BME280;60448;44.956;7.660;2022-08-19T14:20:02;98160;;;26.2;51.4
44075;BME280;60448;44.956;7.660;2022-08-19T14:25:00;98160;;;26.2;51.4
44075;BME280;60448;44.956;7.660;2022-08-19T14:30:00;98160;;;26.2;51.4
44075;BME280;60448;44.956;7.660;2022-08-19T14:35:00;98150;;;26.3;51.0
44075;BME280;60448;44.956;7.660;2022-08-19T14:40:01;98150;;;26.3;51.0
44075;BME280;60448;44.956;7.660;2022-08-19T14:45:00;98150;;;26.3;51.0
44075;BME280;60448;44.956;7.660;2022-08-19T14:50:00;98140;;;26.4;50.7
44075;BME280;60448;44.956;7.660;2022-08-19T14:55:00;98140;;;26.4;50.7
44075;BME280;60448;44.956;7.660;2022-08-19T15:00:00;98140;;;26.4;50.7
44075;BME280;60448;44.956;7.660;2022-08-19T15:05:00;98130;;;26.5;50.4
44075;BME280;60448;44.956;7.660;2022-08-19T15:10:00;98130;;;26.5;50.4
44075;BME280;60448;44.956;7.660;2022-08-19T15:15:00;98130;;;26.5;50.4
44075;BME280;60448;44.956;7.660;2022-08-19T15:20:00;98130;;;26.6;50.3
44075;BME280;60448;44.956;7.660;2022-08-19T15:25:00;98130;;;26.6;50.3
44075;BME280;60448;44.956;7.660;2022-08-19T15:30:00;98130;;;26.6;50.3
44075;BME280;60448;44.956;7.660;2022-08-19T15:35:00;98130;;;26.7;50.3
44075;BME280;60448;44.956;7.660;2022-08-19T15:40:00;98130;;;26.7;50.2
44075;BME280;60448;44.956;7.660;2022-08-19T15:45:00;98130;;;26.7;50.2
44075;BME280;60448;44.956;7.660;2022-08-19T15:50:00;98130;;;26.8;49.1
44075;BME280;60448;44.956;7.660;2022-08-19T15:55:00;98140;;;26.8;49.0
44075;BME280;60448;44.956;7.660;2022-08-19T16:00:00;98140;;;26.8;49.0
44075;BME280;60448;44.956;7.660;2022-08-19T16:05:00;98150;;;26.9;48.4
44075;BME280;60448;44.956;7.660;2022-08-19T16:10:00;98150;;;26.9;48.3
44075;BME280;60448;44.956;7.660;2022-08-19T16:15:00;98150;;;26.9;48.3
44075;BME280;60448;44.956;7.660;2022-08-19T16:20:00;98160;;;27.0;48.2
44075;BME280;60448;44.956;7.660;2022-08-19T16:25:00;98160;;;27.1;48.3
44075;BME280;60448;44.956;7.660;2022-08-19T16:30:00;98160;;;27.1;48.3
44075;BME280;60448;44.956;7.660;2022-08-19T16:35:02;98160;;;27.1;48.3
44075;BME280;60448;44.956;7.660;2022-08-19T16:40:00;98170;;;27.2;48.2
44075;BME280;60448;44.956;7.660;2022-08-19T16:45:00;98170;;;27.2;48.2
44075;BME280;60448;44.956;7.660;2022-08-19T16:50:00;98170;;;27.2;48.2
44075;BME280;60448;44.956;7.660;2022-08-19T16:55:00;98170;;;27.3;47.8
44075;BME280;60448;44.956;7.660;2022-08-19T17:00:00;98170;;;27.3;47.8
44075;BME280;60448;44.956;7.660;2022-08-19T17:05:00;98170;;;27.3;47.8
44075;BME280;60448;44.956;7.660;2022-08-19T17:10:00;98180;;;27.4;47.8
44075;BME280;60448;44.956;7.660;2022-08-19T17:15:00;98180;;;27.4;47.8
44075;BME280;60448;44.956;7.660;2022-08-19T17:20:00;98180;;;27.4;47.8
44075;BME280;60448;44.956;7.660;2022-08-19T17:25:00;98190;;;27.5;48.1
44075;BME280;60448;44.956;7.660;2022-08-19T17:30:01;98190;;;27.5;48.1
44075;BME280;60448;44.956;7.660;2022-08-19T17:35:00;98190;;;27.5;48.1
44075;BME280;60448;44.956;7.660;2022-08-19T17:40:02;98210;;;27.7;47.7
44075;BME280;60448;44.956;7.660;2022-08-19T17:45:00;98210;;;27.7;47.7
44075;BME280;60448;44.956;7.660;2022-08-19T17:50:00;98210;;;27.7;47.7
44075;BME280;60448;44.956;7.660;2022-08-19T17:55:00;98220;;;27.8;47.9
44075;BME280;60448;44.956;7.660;2022-08-19T18:00:00;98220;;;27.8;47.9
44075;BME280;60448;44.956;7.660;2022-08-19T18:05:02;98220;;;27.8;47.9
44075;BME280;60448;44.956;7.660;2022-08-19T18:10:00;98240;;;27.8;48.3
44075;BME280;60448;44.956;7.660;2022-08-19T18:15:00;98240;;;27.8;48.3
44075;BME280;60448;44.956;7.660;2022-08-19T18:20:00;98240;;;27.8;48.3
44075;BME280;60448;44.956;7.660;2022-08-19T18:25:00;98260;;;27.8;49.3
44075;BME280;60448;44.956;7.660;2022-08-19T18:30:00;98260;;;27.8;49.2
44075;BME280;60448;44.956;7.660;2022-08-19T18:35:01;98260;;;27.8;49.2
44075;BME280;60448;44.956;7.660;2022-08-19T18:40:00;98280;;;27.7;49.7
44075;BME280;60448;44.956;7.660;2022-08-19T18:45:00;98280;;;27.7;49.7
44075;BME280;60448;44.956;7.660;2022-08-19T18:50:00;98280;;;27.7;49.7
44075;BME280;60448;44.956;7.660;2022-08-19T18:55:00;98300;;;27.7;50.7
44075;BME280;60448;44.956;7.660;2022-08-19T19:00:00;98310;;;27.7;50.8
44075;BME280;60448;44.956;7.660;2022-08-19T19:05:00;98310;;;27.7;50.8
44075;BME280;60448;44.956;7.660;2022-08-19T19:10:00;98310;;;27.7;51.6
44075;BME280;60448;44.956;7.660;2022-08-19T19:15:00;98320;;;27.7;51.6
44075;BME280;60448;44.956;7.660;2022-08-19T19:20:00;98320;;;27.7;51.6
44075;BME280;60448;44.956;7.660;2022-08-19T19:25:00;98320;;;27.7;51.6
44075;BME280;60448;44.956;7.660;2022-08-19T19:30:00;98330;;;27.6;52.1
44075;BME280;60448;44.956;7.660;2022-08-19T19:35:00;98330;;;27.6;52.1
44075;BME280;60448;44.956;7.660;2022-08-19T19:40:00;98330;;;27.6;52.1
44075;BME280;60448;44.956;7.660;2022-08-19T19:45:00;98340;;;27.6;52.0
44075;BME280;60448;44.956;7.660;2022-08-19T19:50:00;98340;;;27.6;52.0
44075;BME280;60448;44.956;7.660;2022-08-19T19:55:00;98340;;;27.6;52.0
44075;BME280;60448;44.956;7.660;2022-08-19T20:00:00;98370;;;27.5;52.8
44075;BME280;60448;44.956;7.660;2022-08-19T20:05:00;98370;;;27.5;52.8
44075;BME280;60448;44.956;7.660;2022-08-19T20:10:00;98370;;;27.5;52.8
44075;BME280;60448;44.956;7.660;2022-08-19T20:15:00;98390;;;27.4;54.3
44075;BME280;60448;44.956;7.660;2022-08-19T20:20:00;98390;;;27.4;54.3
44075;BME280;60448;44.956;7.660;2022-08-19T20:25:00;98390;;;27.4;54.3
44075;BME280;60448;44.956;7.660;2022-08-19T20:30:00;98410;;;27.2;55.9
44075;BME280;60448;44.956;7.660;2022-08-19T20:35:00;98410;;;27.2;55.9
44075;BME280;60448;44.956;7.660;2022-08-19T20:40:00;98410;;;27.2;55.9
44075;BME280;60448;44.956;7.660;2022-08-19T20:45:02;98420;;;27.1;56.9
44075;BME280;60448;44.956;7.660;2022-08-19T20:50:00;98420;;;27.1;56.9
44075;BME280;60448;44.956;7.660;2022-08-19T20:55:00;98420;;;27.1;56.9
44075;BME280;60448;44.956;7.660;2022-08-19T21:00:00;98430;;;27.1;57.2
44075;BME280;60448;44.956;7.660;2022-08-19T21:05:00;98430;;;27.1;57.2
44075;BME280;60448;44.956;7.660;2022-08-19T21:10:00;98430;;;27.1;57.2
44075;BME280;60448;44.956;7.660;2022-08-19T21:15:00;98430;;;27.0;57.0
44075;BME280;60448;44.956;7.660;2022-08-19T21:20:00;98430;;;27.0;57.0
44075;BME280;60448;44.956;7.660;2022-08-19T21:25:00;98430;;;27.0;57.0
44075;BME280;60448;44.956;7.660;2022-08-19T21:30:00;98430;;;27.0;57.0
44075;BME280;60448;44.956;7.660;2022-08-19T21:35:00;98430;;;27.0;56.9
44075;BME280;60448;44.956;7.660;2022-08-19T21:40:00;98430;;;27.0;56.9
44075;BME280;60448;44.956;7.660;2022-08-19T21:45:00;98430;;;27.0;56.9
44075;BME280;60448;44.956;7.660;2022-08-19T21:50:00;98430;;;27.0;56.9
44075;BME280;60448;44.956;7.660;2022-08-19T21:55:00;98430;;;27.0;56.9
44075;BME280;60448;44.956;7.660;2022-08-19T22:00:00;98430;;;27.0;56.9
44075;BME280;60448;44.956;7.660;2022-08-19T22:05:00;98430;;;27.0;56.9
44075;BME280;60448;44.956;7.660;2022-08-19T22:10:00;98430;;;27.0;56.9
44075;BME280;60448;44.956;7.660;2022-08-19T22:15:00;98430;;;27.0;56.9
44075;BME280;60448;44.956;7.660;2022-08-19T22:20:00;98430;;;27.0;56.9
44075;BME280;60448;44.956;7.660;2022-08-19T22:25:10;98430;;;27.0;56.9
44075;BME280;60448;44.956;7.660;2022-08-19T22:30:00;98430;;;27.0;56.9
44075;BME280;60448;44.956;7.660;2022-08-19T22:35:00;98430;;;27.0;56.9
44075;BME280;60448;44.956;7.660;2022-08-19T22:40:00;98430;;;27.0;56.9
44075;BME280;60448;44.956;7.660;2022-08-19T22:45:00;98430;;;27.0;56.9
44075;BME280;60448;44.956;7.660;2022-08-19T22:50:00;98430;;;27.0;56.9
44075;BME280;60448;44.956;7.660;2022-08-19T22:55:03;98430;;;27.0;56.9
44075;BME280;60448;44.956;7.660;2022-08-19T23:00:00;98430;;;27.0;56.9
44075;BME280;60448;44.956;7.660;2022-08-19T23:05:00;98430;;;27.0;56.9
44075;BME280;60448;44.956;7.660;2022-08-19T23:10:00;98430;;;27.0;56.9
44075;BME280;60448;44.956;7.660;2022-08-19T23:15:03;98430;;;27.0;56.9
44075;BME280;60448;44.956;7.660;2022-08-19T23:20:00;98430;;;27.0;56.9
44075;BME280;60448;44.956;7.660;2022-08-19T23:25:01;98430;;;27.0;56.9
44075;BME280;60448;44.956;7.660;2022-08-19T23:30:00;98430;;;27.0;56.9
44075;BME280;60448;44.956;7.660;2022-08-19T23:35:00;98430;;;27.0;56.9
44075;BME280;60448;44.956;7.660;2022-08-19T23:40:00;98430;;;27.0;56.9
44075;BME280;60448;44.956;7.660;2022-08-19T23:45:00;98430;;;27.0;56.9
44075;BME280;60448;44.956;7.660;2022-08-19T23:50:00;98430;;;27.0;56.9
44075;BME280;60448;44.956;7.660;2022-08-19T23:55:00;98430;;;27.0;56.9
